Time;durP1;ratioP1;P1;durP2;ratioP2;P2;SDS_P1;SDS_P2;PMS_P1;PMS_P2;Temp;Humidity;BMP_temperature;BMP_pressure;BME280_temperature;BME280_humidity;BME280_pressure;Samples;Min_cycle;Max_cycle;Signal;HPM_P1;HPM_P2
2023/02/23 00:01:50;;;;;;;94.22;51.58;;;;;;;;;;6243686;28;20049;-70
2023/02/23 00:04:52;;;;;;;95.95;52.05;;;;;;;;;;6265496;28;20057;-70
2023/02/23 00:07:54;;;;;;;93.20;50.35;;;;;;;;;;6263353;28;20079;-69
2023/02/23 00:10:57;;;;;;;98.10;51.80;;;;;;;;;;6262677;28;20163;-70
2023/02/23 00:14:02;;;;;;;98.38;51.13;;;;;;;;;;6263640;28;20112;-70
2023/02/23 00:17:04;;;;;;;91.93;49.53;;;;;;;;;;6264313;28;20053;-69
2023/02/23 00:20:09;;;;;;;98.72;51.50;;;;;;;;;;6260458;28;20057;-70
2023/02/23 00:23:11;;;;;;;97.65;52.65;;;;;;;;;;6263266;28;20049;-70
2023/02/23 00:26:13;;;;;;;88.32;48.38;;;;;;;;;;6261779;28;20337;-70
2023/02/23 00:29:18;;;;;;;90.35;49.20;;;;;;;;;;6259228;28;20052;-70
2023/02/23 00:32:21;;;;;;;95.43;51.28;;;;;;;;;;6264693;28;20084;-70
2023/02/23 00:35:29;;;;;;;87.80;48.38;;;;;;;;;;6262988;28;20209;-70
2023/02/23 00:38:35;;;;;;;87.88;48.25;;;;;;;;;;6265070;28;20045;-69
2023/02/23 00:41:37;;;;;;;89.70;49.00;;;;;;;;;;6262164;28;20067;-69
2023/02/23 00:44:41;;;;;;;97.13;51.72;;;;;;;;;;6260891;28;20053;-69
2023/02/23 00:47:43;;;;;;;;;;;;;;;;;;6261688;28;20049;-70
2023/02/23 00:50:45;;;;;;;91.57;49.42;;;;;;;;;;6264308;28;20166;-70
2023/02/23 00:53:46;;;;;;;92.07;49.50;;;;;;;;;;6265145;28;20064;-70
2023/02/23 00:56:49;;;;;;;89.85;48.90;;;;;;;;;;6263083;28;20057;-70
2023/02/23 00:59:52;;;;;;;92.82;47.85;;;;;;;;;;6262523;28;20047;-71
2023/02/23 01:02:53;;;;;;;87.07;47.92;;;;;;;;;;6261688;28;20057;-70
2023/02/23 01:05:59;;;;;;;86.50;48.78;;;;;;;;;;6263460;28;20052;-70
2023/02/23 01:09:04;;;;;;;83.18;47.15;;;;;;;;;;6261445;28;20064;-70
2023/02/23 01:12:06;;;;;;;87.53;48.78;;;;;;;;;;6263317;28;20116;-70
2023/02/23 01:15:11;;;;;;;88.15;50.47;;;;;;;;;;6262619;28;20058;-70
2023/02/23 01:18:13;;;;;;;88.40;48.30;;;;;;;;;;6262068;28;20056;-70
2023/02/23 01:21:15;;;;;;;90.07;50.58;;;;;;;;;;6263742;28;20053;-70
2023/02/23 01:24:17;;;;;;;90.57;50.78;;;;;;;;;;6262213;28;20229;-69
2023/02/23 01:27:19;;;;;;;93.70;52.08;;;;;;;;;;6264440;28;20115;-70
2023/02/23 01:30:22;;;;;;;93.15;51.28;;;;;;;;;;6264942;28;20059;-70
2023/02/23 01:33:24;;;;;;;87.68;50.00;;;;;;;;;;6263033;28;20109;-70
2023/02/23 01:36:27;;;;;;;101.95;54.22;;;;;;;;;;6262530;28;20057;-68
2023/02/23 01:39:29;;;;;;;98.93;53.50;;;;;;;;;;6264145;28;20045;-69
2023/02/23 01:42:31;;;;;;;98.78;53.60;;;;;;;;;;6265446;28;20280;-70
2023/02/23 01:45:36;;;;;;;98.82;55.10;;;;;;;;;;6241582;28;20108;-70
2023/02/23 01:48:39;;;;;;;98.05;53.88;;;;;;;;;;6241115;28;20061;-69
2023/02/23 01:51:43;;;;;;;100.80;55.67;;;;;;;;;;6240920;28;20069;-70
2023/02/23 01:54:49;;;;;;;97.28;54.20;;;;;;;;;;6242296;28;20045;-70
2023/02/23 01:57:54;;;;;;;104.35;54.25;;;;;;;;;;6241738;28;20388;-69
2023/02/23 02:01:01;;;;;;;106.70;55.65;;;;;;;;;;6244068;28;20053;-71
2023/02/23 02:04:05;;;;;;;106.55;57.70;;;;;;;;;;6242134;28;20061;-70
2023/02/23 02:07:07;;;;;;;103.95;56.45;;;;;;;;;;6241227;28;20112;-70
2023/02/23 02:13:31;;;;;;;104.70;57.00;;;;;;;;;;6240780;28;20045;-70
2023/02/23 02:16:42;;;;;;;112.55;58.83;;;;;;;;;;6241697;28;20338;-67
2023/02/23 02:20:13;;;;;;;101.75;55.65;;;;;;;;;;6245052;28;20303;-70
2023/02/23 02:24:02;;;;;;;107.95;57.97;;;;;;;;;;6246038;28;20064;-70
2023/02/23 02:27:14;;;;;;;111.85;58.28;;;;;;;;;;6247848;28;20225;-70
2023/02/23 02:30:36;;;;;;;110.65;58.33;;;;;;;;;;6243809;28;20041;-69
2023/02/23 02:34:00;;;;;;;113.82;59.83;;;;;;;;;;6246653;28;20049;-69
2023/02/23 02:37:35;;;;;;;111.45;60.40;;;;;;;;;;6246537;28;20095;-70
2023/02/23 02:40:52;;;;;;;114.95;60.40;;;;;;;;;;6248671;28;20104;-70
2023/02/23 02:43:58;;;;;;;115.30;60.65;;;;;;;;;;6270545;28;20060;-69
2023/02/23 02:47:04;;;;;;;115.43;59.70;;;;;;;;;;6269561;28;20052;-70
2023/02/23 02:50:10;;;;;;;111.85;59.72;;;;;;;;;;6265954;28;20142;-70
2023/02/23 02:53:15;;;;;;;111.13;57.72;;;;;;;;;;6263487;28;20063;-70
2023/02/23 02:56:19;;;;;;;110.40;59.40;;;;;;;;;;6261282;28;20040;-70
2023/02/23 04:19:59;;;;;;;129.35;65.50;;;;;;;;;;6264286;28;20273;-71
2023/02/23 04:23:01;;;;;;;123.07;65.45;;;;;;;;;;6262694;28;20048;-69
2023/02/23 04:26:04;;;;;;;120.95;65.35;;;;;;;;;;6264019;28;20107;-70
2023/02/23 04:29:05;;;;;;;127.57;65.75;;;;;;;;;;6263503;28;20073;-70
2023/02/23 04:32:13;;;;;;;128.65;65.53;;;;;;;;;;6262839;28;20044;-70
2023/02/23 04:35:14;;;;;;;128.65;66.90;;;;;;;;;;6262448;28;20237;-71
2023/02/23 04:38:16;;;;;;;124.95;63.80;;;;;;;;;;6263318;28;20060;-70
2023/02/23 04:41:18;;;;;;;128.90;65.72;;;;;;;;;;6261443;28;20111;-70
2023/02/23 04:44:20;;;;;;;124.20;64.40;;;;;;;;;;6262938;28;20053;-70
2023/02/23 04:47:23;;;;;;;134.98;66.05;;;;;;;;;;6260429;28;20128;-69
2023/02/23 04:50:25;;;;;;;130.25;66.88;;;;;;;;;;6262352;28;20061;-69
2023/02/23 04:53:27;;;;;;;125.35;64.40;;;;;;;;;;6262033;28;20045;-70
2023/02/23 04:56:29;;;;;;;119.18;64.78;;;;;;;;;;6263499;28;20056;-69
2023/02/23 04:59:31;;;;;;;127.72;67.00;;;;;;;;;;6261574;28;20045;-70
2023/02/23 05:02:34;;;;;;;128.13;65.60;;;;;;;;;;6261680;28;20057;-69
2023/02/23 05:05:36;;;;;;;125.83;67.20;;;;;;;;;;6262334;28;20064;-70
2023/02/23 05:08:37;;;;;;;132.02;64.65;;;;;;;;;;6262626;28;20057;-70
2023/02/23 05:11:39;;;;;;;133.88;67.20;;;;;;;;;;6263086;28;20151;-68
2023/02/23 05:14:41;;;;;;;132.75;67.70;;;;;;;;;;6261622;28;20068;-69
2023/02/23 05:17:44;;;;;;;137.15;69.20;;;;;;;;;;6264640;28;20053;-71
2023/02/23 05:20:46;;;;;;;134.45;68.20;;;;;;;;;;6263021;28;20580;-70
2023/02/23 05:23:48;;;;;;;140.05;68.70;;;;;;;;;;6266416;28;20045;-69
2023/02/23 05:26:49;;;;;;;137.40;70.22;;;;;;;;;;6266546;28;20075;-70
2023/02/23 05:29:51;;;;;;;141.32;71.35;;;;;;;;;;6265750;28;20064;-70
2023/02/23 05:32:54;;;;;;;140.02;69.68;;;;;;;;;;6249626;28;20048;-69
2023/02/23 05:35:56;;;;;;;146.63;70.88;;;;;;;;;;6269600;28;20321;-70
2023/02/23 05:38:57;;;;;;;141.20;70.20;;;;;;;;;;6267484;28;20095;-68
2023/02/23 05:41:59;;;;;;;144.73;71.22;;;;;;;;;;6268091;28;20075;-70
2023/02/23 05:45:01;;;;;;;147.60;72.20;;;;;;;;;;6265799;28;20057;-70
2023/02/23 05:48:04;;;;;;;147.18;70.05;;;;;;;;;;6266997;28;20327;-70
2023/02/23 05:51:07;;;;;;;151.18;72.28;;;;;;;;;;6265088;28;20141;-69
2023/02/23 05:54:10;;;;;;;141.47;70.07;;;;;;;;;;6269104;28;20091;-70
2023/02/23 05:57:11;;;;;;;141.77;70.45;;;;;;;;;;6248676;28;20444;-70
2023/02/23 06:00:14;;;;;;;147.85;72.18;;;;;;;;;;6254878;28;20099;-70
2023/02/23 06:03:18;;;;;;;152.35;75.03;;;;;;;;;;6265459;28;21965;-70
2023/02/23 06:06:21;;;;;;;146.02;73.68;;;;;;;;;;6250019;28;20290;-70
2023/02/23 06:09:22;;;;;;;151.98;72.80;;;;;;;;;;6243929;28;20140;-70
2023/02/23 06:12:24;;;;;;;156.82;72.72;;;;;;;;;;6242950;28;20058;-67
2023/02/23 06:15:26;;;;;;;147.93;72.32;;;;;;;;;;6238924;28;20064;-68
2023/02/23 06:18:29;;;;;;;145.77;71.35;;;;;;;;;;6256070;28;20329;-70
2023/02/23 06:21:31;;;;;;;151.65;72.47;;;;;;;;;;6265342;28;20075;-68
2023/02/23 06:24:33;;;;;;;144.18;74.00;;;;;;;;;;6264746;28;20117;-69
2023/02/23 06:27:35;;;;;;;146.30;71.60;;;;;;;;;;6267165;28;20107;-69
2023/02/23 06:30:38;;;;;;;147.50;74.30;;;;;;;;;;6265274;28;20237;-70
2023/02/23 06:33:42;;;;;;;150.30;72.80;;;;;;;;;;6266716;28;20225;-69
2023/02/23 06:36:43;;;;;;;143.88;73.05;;;;;;;;;;6265880;28;20092;-69
2023/02/23 06:39:46;;;;;;;152.02;73.00;;;;;;;;;;6265319;28;20049;-69
2023/02/23 06:42:47;;;;;;;145.85;72.28;;;;;;;;;;6265684;28;20072;-69
2023/02/23 06:45:49;;;;;;;140.93;70.75;;;;;;;;;;6262614;28;20340;-69
2023/02/23 06:48:55;;;;;;;141.40;70.05;;;;;;;;;;6264375;28;20057;-69
2023/02/23 06:51:57;;;;;;;138.50;70.78;;;;;;;;;;6239220;28;20234;-69
2023/02/23 06:54:59;;;;;;;144.15;70.25;;;;;;;;;;6240059;28;20057;-69
2023/02/23 06:58:01;;;;;;;142.82;68.28;;;;;;;;;;6237728;28;20053;-68
2023/02/23 07:01:02;;;;;;;137.95;68.82;;;;;;;;;;6237367;28;20049;-73
2023/02/23 07:04:05;;;;;;;143.63;71.30;;;;;;;;;;6238212;28;20227;-70
2023/02/23 07:07:07;;;;;;;143.77;69.95;;;;;;;;;;6238268;28;20053;-68
2023/02/23 07:10:10;;;;;;;141.38;69.60;;;;;;;;;;6237806;28;20109;-68
2023/02/23 07:13:12;;;;;;;134.10;71.35;;;;;;;;;;6238133;28;20045;-68
2023/02/23 07:16:15;;;;;;;143.30;69.55;;;;;;;;;;6237826;28;20314;-69
2023/02/23 07:19:18;;;;;;;137.25;70.45;;;;;;;;;;6238688;28;20115;-69
2023/02/23 07:22:21;;;;;;;139.60;70.30;;;;;;;;;;6240896;28;20352;-69
2023/02/23 07:25:22;;;;;;;141.55;73.10;;;;;;;;;;6238790;28;20127;-70
2023/02/23 07:28:24;;;;;;;144.00;71.03;;;;;;;;;;6238912;28;20137;-69
2023/02/23 07:31:26;;;;;;;137.70;69.25;;;;;;;;;;6239782;28;20161;-68
2023/02/23 07:34:29;;;;;;;144.88;71.07;;;;;;;;;;6240395;28;20062;-68
2023/02/23 07:37:31;;;;;;;139.02;71.65;;;;;;;;;;6240702;28;20061;-69
2023/02/23 07:40:32;;;;;;;141.32;70.82;;;;;;;;;;6240289;28;20046;-69
2023/02/23 07:43:34;;;;;;;142.45;72.05;;;;;;;;;;6261509;28;20060;-68
2023/02/23 07:46:36;;;;;;;139.25;68.07;;;;;;;;;;6265312;28;20059;-68
2023/02/23 07:49:39;;;;;;;142.70;69.53;;;;;;;;;;6261618;28;20053;-68
2023/02/23 07:52:42;;;;;;;131.50;67.18;;;;;;;;;;6264633;28;20060;-67
2023/02/23 07:55:44;;;;;;;133.43;67.50;;;;;;;;;;6264741;28;20057;-69
2023/02/23 07:58:45;;;;;;;126.72;66.20;;;;;;;;;;6264766;28;20064;-69
2023/02/23 08:01:47;;;;;;;132.48;66.47;;;;;;;;;;6262323;28;20058;-68
2023/02/23 08:04:52;;;;;;;127.35;63.92;;;;;;;;;;6262004;28;20076;-68
2023/02/23 08:07:54;;;;;;;137.00;68.95;;;;;;;;;;6265938;28;20055;-68
2023/02/23 08:10:59;;;;;;;128.27;66.28;;;;;;;;;;6263645;28;20119;-69
2023/02/23 08:14:01;;;;;;;130.07;66.32;;;;;;;;;;6262664;28;20053;-71
2023/02/23 08:17:03;;;;;;;130.73;67.07;;;;;;;;;;6263827;28;20076;-70
2023/02/23 08:20:08;;;;;;;125.72;65.85;;;;;;;;;;6263646;28;20164;-68
2023/02/23 08:23:10;;;;;;;124.80;61.50;;;;;;;;;;6264946;28;20052;-69
2023/02/23 08:26:12;;;;;;;125.35;66.60;;;;;;;;;;6263144;28;20060;-68
2023/02/23 08:29:13;;;;;;;123.05;64.13;;;;;;;;;;6261007;28;20061;-68
2023/02/23 08:32:15;;;;;;;112.28;61.22;;;;;;;;;;6264259;28;20140;-68
2023/02/23 08:35:18;;;;;;;113.65;60.28;;;;;;;;;;6264777;28;20279;-69
2023/02/23 08:38:20;;;;;;;113.88;61.22;;;;;;;;;;6261993;28;20068;-69
2023/02/23 08:41:22;;;;;;;115.78;62.72;;;;;;;;;;6261145;28;20128;-67
2023/02/23 08:44:24;;;;;;;112.75;57.00;;;;;;;;;;6262327;28;20750;-68
2023/02/23 08:47:26;;;;;;;104.60;56.13;;;;;;;;;;6262106;28;20095;-69
2023/02/23 08:50:29;;;;;;;112.30;60.40;;;;;;;;;;6264061;28;20275;-68
2023/02/23 08:53:30;;;;;;;106.40;56.65;;;;;;;;;;6261780;28;20224;-68
2023/02/23 08:56:32;;;;;;;111.47;60.10;;;;;;;;;;6268335;28;20103;-69
2023/02/23 08:59:34;;;;;;;107.93;58.90;;;;;;;;;;6267437;28;20057;-69
2023/02/23 09:02:35;;;;;;;119.82;60.20;;;;;;;;;;6268537;28;21201;-69
2023/02/23 09:05:38;;;;;;;107.47;57.08;;;;;;;;;;6265235;28;20053;-69
2023/02/23 09:08:40;;;;;;;102.47;55.35;;;;;;;;;;6266651;28;20293;-68
2023/02/23 09:11:42;;;;;;;104.28;56.22;;;;;;;;;;6266784;28;20370;-69
2023/02/23 09:14:44;;;;;;;108.43;59.40;;;;;;;;;;6266307;28;20053;-69
2023/02/23 09:17:46;;;;;;;108.43;57.22;;;;;;;;;;6266155;28;20056;-69
2023/02/23 09:20:50;;;;;;;105.20;57.45;;;;;;;;;;6264871;28;20106;-70
2023/02/23 09:23:54;;;;;;;106.03;59.22;;;;;;;;;;6265411;28;20053;-70
2023/02/23 09:26:56;;;;;;;108.07;57.00;;;;;;;;;;6268110;28;20057;-69
2023/02/23 09:29:58;;;;;;;101.40;55.78;;;;;;;;;;6266471;28;20059;-69
2023/02/23 09:32:59;;;;;;;93.40;53.30;;;;;;;;;;6266813;28;20049;-69
2023/02/23 09:36:06;;;;;;;98.72;55.10;;;;;;;;;;6265183;28;20117;-69
2023/02/23 09:39:08;;;;;;;93.70;52.25;;;;;;;;;;6263322;28;20534;-69
2023/02/23 09:42:17;;;;;;;97.57;51.13;;;;;;;;;;6266313;28;20045;-69
2023/02/23 09:45:26;;;;;;;87.00;48.50;;;;;;;;;;6266497;28;20049;-70
2023/02/23 09:48:28;;;;;;;85.22;48.78;;;;;;;;;;6265831;28;20045;-70
2023/02/23 09:51:36;;;;;;;88.57;49.55;;;;;;;;;;6265278;28;20049;-69
2023/02/23 09:54:38;;;;;;;95.45;51.05;;;;;;;;;;6265839;28;20048;-69
2023/02/23 09:57:41;;;;;;;73.30;42.58;;;;;;;;;;6263514;28;20103;-68
2023/02/23 10:00:45;;;;;;;88.53;47.03;;;;;;;;;;6266407;28;20056;-68
2023/02/23 10:03:51;;;;;;;82.40;46.60;;;;;;;;;;6265387;28;20618;-68
2023/02/23 10:06:58;;;;;;;90.28;51.63;;;;;;;;;;6264600;28;20083;-69
2023/02/23 10:10:08;;;;;;;90.20;49.72;;;;;;;;;;6263674;28;20068;-69
2023/02/23 10:13:16;;;;;;;85.88;49.10;;;;;;;;;;6262118;28;20063;-70
2023/02/23 10:16:22;;;;;;;84.35;47.80;;;;;;;;;;6264732;28;20049;-69
2023/02/23 10:19:29;;;;;;;82.70;46.80;;;;;;;;;;6264482;28;20063;-69
2023/02/23 10:22:33;;;;;;;75.00;45.95;;;;;;;;;;6265383;28;20230;-69
2023/02/23 10:25:36;;;;;;;;;;;;;;;;;;6266771;28;20057;-69
2023/02/23 10:28:38;;;;;;;74.88;44.30;;;;;;;;;;6173872;28;3331255;-69
2023/02/23 10:31:42;;;;;;;72.15;40.85;;;;;;;;;;6268533;28;21457;-69
2023/02/23 10:34:44;;;;;;;;;;;;;;;;;;6271352;28;20063;-69
2023/02/23 10:37:47;;;;;;;74.70;41.15;;;;;;;;;;6260064;28;19925;-68
2023/02/23 10:40:56;;;;;;;71.93;41.83;;;;;;;;;;6245261;28;20058;-68
2023/02/23 10:43:58;;;;;;;73.78;41.90;;;;;;;;;;6244383;28;20057;-69
2023/02/23 10:47:02;;;;;;;85.43;41.88;;;;;;;;;;6247938;28;20065;-69
2023/02/23 10:50:06;;;;;;;72.93;42.70;;;;;;;;;;6247768;28;20294;-69
2023/02/23 10:53:15;;;;;;;72.28;39.63;;;;;;;;;;6246852;28;21384;-70
2023/02/23 10:56:19;;;;;;;71.47;40.13;;;;;;;;;;6240381;28;20241;-68
2023/02/23 10:59:21;;;;;;;76.60;43.53;;;;;;;;;;6239009;28;20065;-69
2023/02/23 11:02:24;;;;;;;75.97;41.90;;;;;;;;;;6240451;28;20061;-69
2023/02/23 11:05:31;;;;;;;75.93;41.67;;;;;;;;;;6241419;28;20355;-69
2023/02/23 11:08:35;;;;;;;66.13;38.25;;;;;;;;;;6240025;28;20139;-69
2023/02/23 11:11:37;;;;;;;66.07;37.30;;;;;;;;;;6239952;28;20053;-69
2023/02/23 11:14:38;;;;;;;71.18;38.08;;;;;;;;;;6239280;28;20041;-69
2023/02/23 11:17:40;;;;;;;61.65;35.78;;;;;;;;;;6241541;28;20045;-69
2023/02/23 11:20:43;;;;;;;59.10;31.58;;;;;;;;;;6239821;28;20053;-69
2023/02/23 11:23:46;;;;;;;48.08;28.52;;;;;;;;;;6239464;28;20104;-69
2023/02/23 11:26:50;;;;;;;49.80;27.10;;;;;;;;;;6236447;28;20056;-70
2023/02/23 11:29:52;;;;;;;51.20;28.02;;;;;;;;;;6247981;28;20057;-70
2023/02/23 11:32:57;;;;;;;49.63;28.17;;;;;;;;;;6264684;28;20158;-69
2023/02/23 11:36:00;;;;;;;47.40;27.27;;;;;;;;;;6266458;28;20318;-70
2023/02/23 11:39:15;;;;;;;49.53;26.87;;;;;;;;;;6262558;28;20297;-69
2023/02/23 11:42:19;;;;;;;41.38;24.95;;;;;;;;;;6263151;28;20463;-69
2023/02/23 11:45:23;;;;;;;48.25;25.65;;;;;;;;;;6263809;28;20053;-70
2023/02/23 11:48:27;;;;;;;45.80;26.42;;;;;;;;;;6265526;28;20056;-69
2023/02/23 11:51:30;;;;;;;44.70;26.05;;;;;;;;;;6261807;28;20115;-69
2023/02/23 11:54:34;;;;;;;44.55;25.90;;;;;;;;;;6262625;28;20045;-69
2023/02/23 11:57:36;;;;;;;42.10;24.92;;;;;;;;;;6262633;28;20053;-69
2023/02/23 12:00:38;;;;;;;124.35;64.10;;;;;;;;;;6265830;28;20056;-71
2023/02/23 12:03:46;;;;;;;74.47;41.75;;;;;;;;;;6241028;28;20060;-73
2023/02/23 12:06:48;;;;;;;43.08;23.35;;;;;;;;;;6244533;28;20103;-73
2023/02/23 12:09:58;;;;;;;43.15;24.92;;;;;;;;;;6239884;28;20057;-72
2023/02/23 12:13:06;;;;;;;38.20;22.20;;;;;;;;;;6238881;28;20111;-73
2023/02/23 12:16:14;;;;;;;56.35;33.03;;;;;;;;;;6250747;28;20326;-73
2023/02/23 12:19:24;;;;;;;56.65;32.97;;;;;;;;;;6262530;28;20285;-73
2023/02/23 12:22:30;;;;;;;30.70;20.23;;;;;;;;;;6265779;28;20060;-69
2023/02/23 12:25:36;;;;;;;33.25;19.50;;;;;;;;;;6262448;28;20071;-69
2023/02/23 12:28:40;;;;;;;32.72;18.83;;;;;;;;;;6263025;28;20098;-69
2023/02/23 12:31:46;;;;;;;32.47;18.67;;;;;;;;;;6261367;28;20236;-69
2023/02/23 12:34:51;;;;;;;32.05;17.80;;;;;;;;;;6262843;28;20065;-69
2023/02/23 12:37:56;;;;;;;34.55;20.13;;;;;;;;;;6239300;28;20048;-69
2023/02/23 12:41:05;;;;;;;32.72;19.92;;;;;;;;;;6237836;28;20056;-71
2023/02/23 12:44:16;;;;;;;34.25;20.30;;;;;;;;;;6237091;28;20049;-69
2023/02/23 12:47:25;;;;;;;31.52;19.23;;;;;;;;;;6237343;28;20057;-69
2023/02/23 12:50:30;;;;;;;32.92;19.23;;;;;;;;;;6238663;28;20065;-68
2023/02/23 12:53:37;;;;;;;31.90;20.00;;;;;;;;;;6238602;28;20307;-70
2023/02/23 12:56:50;;;;;;;32.13;19.73;;;;;;;;;;6239140;28;20049;-71
2023/02/23 13:00:22;;;;;;;31.20;19.50;;;;;;;;;;6248702;28;20204;-69
2023/02/23 13:04:03;;;;;;;36.50;20.25;;;;;;;;;;6261725;28;20077;-70
2023/02/23 13:07:09;;;;;;;35.47;20.40;;;;;;;;;;6263040;28;20052;-69
2023/02/23 13:10:16;;;;;;;33.00;20.05;;;;;;;;;;6266168;28;20226;-69
2023/02/23 13:13:29;;;;;;;33.95;20.23;;;;;;;;;;6262508;28;20049;-70
2023/02/23 13:16:34;;;;;;;31.67;20.02;;;;;;;;;;6259773;28;20138;-69
2023/02/23 13:19:41;;;;;;;34.95;21.55;;;;;;;;;;6262736;28;20125;-70
2023/02/23 13:22:47;;;;;;;35.90;20.60;;;;;;;;;;6262453;28;20053;-71
2023/02/23 13:25:54;;;;;;;33.33;20.45;;;;;;;;;;6242738;28;20046;-70
2023/02/23 13:29:02;;;;;;;33.22;20.30;;;;;;;;;;6256538;28;20121;-70
2023/02/23 13:32:05;;;;;;;34.50;20.58;;;;;;;;;;6263207;28;20064;-70
2023/02/23 13:35:13;;;;;;;35.58;21.20;;;;;;;;;;6263710;28;20534;-70
2023/02/23 13:38:19;;;;;;;33.22;20.05;;;;;;;;;;6263663;28;20041;-70
2023/02/23 13:41:30;;;;;;;34.08;20.40;;;;;;;;;;6262398;28;20057;-69
2023/02/23 13:44:37;;;;;;;35.10;21.27;;;;;;;;;;6263686;28;20343;-70
2023/02/23 13:47:45;;;;;;;32.13;20.45;;;;;;;;;;6269994;28;20233;-70
2023/02/23 13:50:54;;;;;;;35.95;20.52;;;;;;;;;;6267133;28;20099;-70
2023/02/23 13:54:03;;;;;;;32.17;19.83;;;;;;;;;;6244195;28;20052;-67
2023/02/23 13:57:16;;;;;;;31.90;21.50;;;;;;;;;;6244435;28;20414;-68
2023/02/23 14:00:28;;;;;;;31.00;20.13;;;;;;;;;;6266913;28;20248;-69
2023/02/23 14:03:32;;;;;;;34.63;21.00;;;;;;;;;;6266996;28;20065;-69
2023/02/23 14:06:34;;;;;;;35.60;22.77;;;;;;;;;;6267471;28;20049;-70
2023/02/23 14:09:38;;;;;;;31.48;20.73;;;;;;;;;;6266715;28;20347;-70
2023/02/23 14:12:41;;;;;;;29.65;21.17;;;;;;;;;;6265732;28;20114;-70
2023/02/23 14:15:52;;;;;;;33.87;21.73;;;;;;;;;;6265840;28;20048;-68
2023/02/23 14:19:07;;;;;;;34.38;21.45;;;;;;;;;;6264495;28;20532;-70
2023/02/23 14:22:10;;;;;;;29.20;21.08;;;;;;;;;;6267636;28;20053;-70
2023/02/23 14:25:47;;;;;;;40.97;21.42;;;;;;;;;;6266350;28;20056;-70
2023/02/23 14:29:10;;;;;;;31.95;21.58;;;;;;;;;;6267075;28;20096;-70
2023/02/23 14:32:31;;;;;;;31.98;21.27;;;;;;;;;;6253572;28;20057;-70
2023/02/23 14:35:44;;;;;;;32.75;20.92;;;;;;;;;;6241692;28;20061;-70
2023/02/23 14:38:45;;;;;;;33.95;22.02;;;;;;;;;;6245134;28;20233;-70
2023/02/23 14:41:50;;;;;;;36.30;21.95;;;;;;;;;;6239360;28;20061;-70
2023/02/23 14:44:52;;;;;;;37.33;22.50;;;;;;;;;;6241333;28;20061;-70
2023/02/23 14:47:59;;;;;;;41.40;22.27;;;;;;;;;;6243497;28;20229;-70
2023/02/23 14:51:16;;;;;;;36.80;22.65;;;;;;;;;;6255835;28;20053;-69
2023/02/23 14:54:24;;;;;;;37.50;21.83;;;;;;;;;;6263708;28;20049;-69
2023/02/23 14:57:26;;;;;;;35.42;21.75;;;;;;;;;;6260598;28;20064;-70
2023/02/23 15:00:33;;;;;;;36.63;23.23;;;;;;;;;;6264730;28;20061;-68
2023/02/23 15:03:38;;;;;;;32.35;20.50;;;;;;;;;;6262882;28;20054;-70
2023/02/23 15:06:45;;;;;;;36.20;22.52;;;;;;;;;;6264470;28;20233;-69
2023/02/23 15:09:48;;;;;;;50.78;31.98;;;;;;;;;;6257321;28;20310;-70
2023/02/23 15:12:49;;;;;;;39.15;25.88;;;;;;;;;;6240573;28;21270;-70
2023/02/23 15:15:51;;;;;;;37.05;22.65;;;;;;;;;;6238711;28;20113;-69
2023/02/23 15:18:55;;;;;;;38.88;23.17;;;;;;;;;;6241556;28;20342;-70
2023/02/23 15:21:58;;;;;;;38.00;23.55;;;;;;;;;;6239891;28;20068;-70
2023/02/23 15:25:03;;;;;;;35.33;22.42;;;;;;;;;;6236846;28;20063;-69
2023/02/23 15:28:16;;;;;;;36.83;22.95;;;;;;;;;;6238134;28;20128;-70
2023/02/23 15:31:18;;;;;;;39.13;22.27;;;;;;;;;;6239435;28;20104;-70
2023/02/23 15:34:23;;;;;;;35.85;22.70;;;;;;;;;;6239926;28;20069;-69
2023/02/23 15:37:30;;;;;;;37.13;22.83;;;;;;;;;;6238179;28;20066;-70
2023/02/23 15:40:32;;;;;;;40.17;22.73;;;;;;;;;;6243443;28;20105;-70
2023/02/23 15:43:34;;;;;;;38.25;23.33;;;;;;;;;;6240963;28;20143;-70
2023/02/23 15:46:36;;;;;;;36.97;22.13;;;;;;;;;;6243617;28;20335;-70
2023/02/23 15:49:40;;;;;;;46.60;22.98;;;;;;;;;;6241098;28;20042;-70
2023/02/23 15:52:44;;;;;;;;;;;;;;;;;;6240864;28;20073;-70
2023/02/23 15:55:47;;;;;;;37.30;22.05;;;;;;;;;;6242304;28;19925;-70
2023/02/23 15:58:53;;;;;;;39.57;24.60;;;;;;;;;;6240740;28;20306;-69
2023/02/23 16:01:55;;;;;;;40.42;23.08;;;;;;;;;;6242330;28;20052;-70
2023/02/23 16:05:08;;;;;;;35.00;22.10;;;;;;;;;;6239998;28;20128;-70
2023/02/23 16:08:21;;;;;;;37.08;23.35;;;;;;;;;;6243767;28;20291;-70
2023/02/23 16:11:23;;;;;;;36.70;22.45;;;;;;;;;;6239877;28;20211;-70
2023/02/23 16:14:30;;;;;;;36.72;21.92;;;;;;;;;;6243447;28;20124;-68
2023/02/23 16:17:38;;;;;;;36.78;23.02;;;;;;;;;;6236796;28;20053;-69
2023/02/23 16:20:43;;;;;;;39.63;22.75;;;;;;;;;;6236271;28;20049;-69
2023/02/23 16:23:48;;;;;;;44.13;23.50;;;;;;;;;;6235267;28;20045;-69
2023/02/23 16:26:54;;;;;;;41.05;22.70;;;;;;;;;;6237344;28;20112;-70
2023/02/23 16:29:59;;;;;;;38.20;23.73;;;;;;;;;;6234696;28;20050;-70
2023/02/23 16:33:07;;;;;;;41.17;23.63;;;;;;;;;;6254892;28;20385;-70
2023/02/23 16:36:18;;;;;;;42.05;23.30;;;;;;;;;;6259868;28;20057;-69
2023/02/23 16:39:21;;;;;;;39.92;23.70;;;;;;;;;;6259546;28;20041;-69
2023/02/23 16:42:32;;;;;;;41.53;23.65;;;;;;;;;;6259308;28;20332;-71
2023/02/23 16:45:33;;;;;;;44.53;23.17;;;;;;;;;;6263039;28;20070;-72
2023/02/23 16:48:35;;;;;;;39.70;23.58;;;;;;;;;;6258700;28;20061;-74
2023/02/23 16:51:38;;;;;;;39.75;23.20;;;;;;;;;;6261825;28;20041;-71
2023/02/23 16:54:40;;;;;;;38.58;23.98;;;;;;;;;;6259526;28;20064;-71
2023/02/23 16:57:42;;;;;;;37.08;23.20;;;;;;;;;;6259282;28;20217;-72
2023/02/23 17:00:44;;;;;;;40.78;23.13;;;;;;;;;;6263291;28;20411;-71
2023/02/23 17:03:46;;;;;;;38.95;22.95;;;;;;;;;;6260963;28;20096;-71
2023/02/23 17:06:54;;;;;;;40.15;24.10;;;;;;;;;;6260709;28;20119;-71
2023/02/23 17:09:56;;;;;;;40.55;24.00;;;;;;;;;;6258610;28;20059;-72
2023/02/23 17:13:01;;;;;;;41.22;24.48;;;;;;;;;;6260660;28;20048;-71
2023/02/23 17:16:05;;;;;;;41.65;24.83;;;;;;;;;;6262637;28;20040;-69
2023/02/23 17:19:07;;;;;;;43.80;26.48;;;;;;;;;;6265205;28;20152;-71
2023/02/23 17:22:11;;;;;;;44.28;27.42;;;;;;;;;;6265554;28;20068;-71
2023/02/23 17:25:12;;;;;;;50.90;26.85;;;;;;;;;;6262876;28;20060;-72
2023/02/23 17:28:14;;;;;;;47.05;27.65;;;;;;;;;;6266844;28;20084;-72
2023/02/23 17:31:17;;;;;;;47.38;28.30;;;;;;;;;;6266169;28;20068;-71
2023/02/23 17:34:19;;;;;;;55.55;30.60;;;;;;;;;;6268434;28;20053;-72
2023/02/23 17:37:22;;;;;;;54.63;30.33;;;;;;;;;;6267054;28;20053;-71
2023/02/23 17:40:28;;;;;;;53.22;29.98;;;;;;;;;;6267951;28;20116;-72
2023/02/23 17:43:31;;;;;;;55.92;30.85;;;;;;;;;;6268790;28;20072;-72
2023/02/23 17:46:32;;;;;;;51.95;31.38;;;;;;;;;;6265841;28;20169;-73
2023/02/23 17:49:42;;;;;;;58.33;32.83;;;;;;;;;;6266487;28;20061;-72
2023/02/23 17:52:46;;;;;;;57.72;30.92;;;;;;;;;;6266973;28;20314;-72
2023/02/23 17:55:47;;;;;;;57.03;32.38;;;;;;;;;;6266044;28;20092;-72
2023/02/23 17:58:50;;;;;;;59.60;32.55;;;;;;;;;;6265874;28;20059;-72
2023/02/23 18:01:52;;;;;;;53.40;31.65;;;;;;;;;;6266538;28;20179;-71
2023/02/23 18:04:53;;;;;;;57.67;31.17;;;;;;;;;;6263101;28;20340;-71
2023/02/23 18:07:56;;;;;;;51.38;30.40;;;;;;;;;;6257781;28;20286;-72
2023/02/23 18:10:58;;;;;;;51.42;30.48;;;;;;;;;;6240977;28;20054;-71
2023/02/23 18:14:02;;;;;;;56.85;31.00;;;;;;;;;;6243361;28;20058;-74
2023/02/23 18:17:04;;;;;;;54.45;31.25;;;;;;;;;;6241207;28;20119;-73
2023/02/23 18:20:07;;;;;;;54.35;31.02;;;;;;;;;;6241371;28;20122;-73
2023/02/23 18:23:10;;;;;;;56.05;32.83;;;;;;;;;;6258466;28;20043;-69
2023/02/23 18:26:13;;;;;;;54.03;32.03;;;;;;;;;;6265141;28;20056;-73
2023/02/23 18:29:14;;;;;;;51.92;30.90;;;;;;;;;;6265925;28;20053;-71
2023/02/23 18:32:16;;;;;;;54.95;30.85;;;;;;;;;;6267229;28;20065;-73
2023/02/23 18:35:18;;;;;;;51.83;29.88;;;;;;;;;;6268498;28;20041;-72
2023/02/23 18:38:21;;;;;;;51.90;30.17;;;;;;;;;;6264194;28;20122;-72
2023/02/23 18:41:29;;;;;;;50.50;29.55;;;;;;;;;;6262862;28;20081;-71
2023/02/23 18:44:31;;;;;;;47.00;29.17;;;;;;;;;;6264184;28;20092;-71
2023/02/23 18:47:32;;;;;;;51.47;28.75;;;;;;;;;;6266545;28;20060;-71
2023/02/23 18:50:35;;;;;;;53.00;30.20;;;;;;;;;;6264078;28;20061;-72
2023/02/23 18:53:38;;;;;;;49.70;29.15;;;;;;;;;;6261706;28;20328;-68
2023/02/23 18:56:40;;;;;;;53.67;30.70;;;;;;;;;;6264852;28;20112;-71
2023/02/23 18:59:42;;;;;;;52.95;28.20;;;;;;;;;;6266230;28;20041;-69
2023/02/23 19:02:46;;;;;;;51.83;29.52;;;;;;;;;;6263502;28;20372;-72
2023/02/23 19:05:51;;;;;;;50.83;27.65;;;;;;;;;;6265715;28;20057;-72
2023/02/23 19:08:58;;;;;;;50.00;28.25;;;;;;;;;;6265088;28;20155;-68
2023/02/23 19:11:59;;;;;;;47.75;28.75;;;;;;;;;;6265584;28;20053;-71
2023/02/23 19:15:02;;;;;;;47.72;28.67;;;;;;;;;;6264905;28;20132;-72